createdAt,value
2023-01-02T00:01:06.066Z,10.30
2023-01-02T00:03:33.157Z,10.30
2023-01-02T00:06:03.935Z,10.30
2023-01-02T00:08:30.925Z,10.30
2023-01-02T00:10:58.016Z,10.30
2023-01-02T00:13:24.910Z,10.30
2023-01-02T00:15:51.878Z,10.30
2023-01-02T00:18:18.754Z,10.30
2023-01-02T00:20:45.645Z,10.30
2023-01-02T00:23:12.440Z,10.30
2023-01-02T00:25:39.284Z,10.30
2023-01-02T00:28:06.206Z,10.30
2023-01-02T00:30:38.175Z,10.40
2023-01-02T00:33:06.972Z,10.40
2023-01-02T00:35:34.130Z,10.40
2023-01-02T00:38:00.990Z,10.40
2023-01-02T00:40:27.932Z,10.40
2023-01-02T00:42:54.751Z,10.40
2023-01-02T00:45:21.814Z,10.40
2023-01-02T00:47:48.675Z,10.40
2023-01-02T00:50:15.611Z,10.40
2023-01-02T00:52:42.498Z,10.40
2023-01-02T00:55:09.857Z,10.50
2023-01-02T00:57:37.284Z,10.50
2023-01-02T01:00:06.607Z,10.50
2023-01-02T01:02:44.373Z,10.50
2023-01-02T01:05:11.282Z,10.50
2023-01-02T01:07:45.721Z,10.60
2023-01-02T01:10:13.012Z,10.60
2023-01-02T01:12:41.572Z,10.60
2023-01-02T01:15:10.227Z,10.60
2023-01-02T01:17:44.633Z,10.70
2023-01-02T01:20:11.451Z,10.80
2023-01-02T01:22:38.659Z,10.80
2023-01-02T01:25:06.046Z,10.80
2023-01-02T01:27:32.878Z,10.90
2023-01-02T01:29:59.678Z,10.90
2023-01-02T01:32:28.276Z,10.90
2023-01-02T01:34:55.103Z,11.00
2023-01-02T01:37:21.923Z,11.00
2023-01-02T01:39:52.692Z,11.00
2023-01-02T01:42:24.042Z,11.00
2023-01-02T01:44:53.414Z,11.10
2023-01-02T01:47:37.665Z,11.10
2023-01-02T01:50:21.545Z,11.10
2023-01-02T01:56:01.124Z,11.10
2023-01-02T01:58:37.530Z,11.10
2023-01-02T02:01:04.687Z,11.10
2023-01-02T02:03:33.729Z,11.10
2023-01-02T02:06:02.007Z,11.10
2023-01-02T02:09:06.754Z,11.10
2023-01-02T02:11:34.359Z,11.10
2023-01-02T02:14:01.772Z,11.10
2023-01-02T02:16:35.248Z,11.10
2023-01-02T02:19:30.095Z,11.10
2023-01-02T02:22:38.350Z,11.10
2023-01-02T02:25:40.051Z,11.10
2023-01-02T02:28:40.221Z,11.20
2023-01-02T02:31:06.953Z,11.20
2023-01-02T02:33:56.185Z,11.20
2023-01-02T02:36:38.996Z,11.20
2023-01-02T02:39:33.929Z,11.30
2023-01-02T02:42:08.048Z,11.20
2023-01-02T02:44:49.865Z,11.30
2023-01-02T02:47:34.825Z,11.30
2023-01-02T02:50:37.488Z,11.30
2023-01-02T02:53:17.809Z,11.30
2023-01-02T02:55:48.740Z,11.30
2023-01-02T02:58:18.431Z,11.40
2023-01-02T03:00:45.212Z,11.30
2023-01-02T03:03:27.954Z,11.30
2023-01-02T03:06:07.467Z,11.30
2023-01-02T03:09:12.048Z,11.30
2023-01-02T03:12:15.890Z,11.40
2023-01-02T03:14:58.365Z,11.30
2023-01-02T03:17:33.670Z,11.30
2023-01-02T03:20:16.809Z,11.40
2023-01-02T03:22:48.648Z,11.30
2023-01-02T03:25:16.850Z,11.30
2023-01-02T03:27:47.772Z,11.30
2023-01-02T03:30:18.765Z,11.30
2023-01-02T03:33:08.739Z,11.30
2023-01-02T03:35:50.493Z,11.20
2023-01-02T03:38:25.937Z,11.20
2023-01-02T03:41:17.443Z,11.20
2023-01-02T03:43:46.540Z,11.20
2023-01-02T03:46:27.035Z,11.20
2023-01-02T03:49:14.375Z,11.20
2023-01-02T03:51:41.892Z,11.20
2023-01-02T03:54:10.491Z,11.20
2023-01-02T03:56:46.190Z,11.20
2023-01-02T03:59:30.524Z,11.30
2023-01-02T04:02:02.365Z,11.30
2023-01-02T04:04:53.474Z,11.30
2023-01-02T04:07:38.325Z,11.30
2023-01-02T04:10:06.779Z,11.30
2023-01-02T04:12:37.437Z,11.40
2023-01-02T04:15:08.909Z,11.40
2023-01-02T04:17:42.341Z,11.40
2023-01-02T04:20:14.929Z,11.40
2023-01-02T04:22:50.280Z,11.30
2023-01-02T04:25:19.235Z,11.40
2023-01-02T04:28:00.523Z,11.40
2023-01-02T04:30:30.033Z,11.40
2023-01-02T04:32:59.479Z,11.40
2023-01-02T04:35:27.384Z,11.40
2023-01-02T04:37:54.167Z,11.40
2023-01-02T04:43:19.816Z,11.40
2023-01-02T04:45:49.879Z,11.50
2023-01-02T04:48:20.686Z,11.50
2023-01-02T04:50:48.948Z,11.50
2023-01-02T04:53:16.010Z,11.50
2023-01-02T04:55:42.842Z,11.50
2023-01-02T04:58:09.658Z,11.50
2023-01-02T05:00:36.577Z,11.50
2023-01-02T05:03:08.515Z,11.60
2023-01-02T05:05:35.318Z,11.60
2023-01-02T05:08:02.166Z,11.60
2023-01-02T05:10:28.969Z,11.60
2023-01-02T05:12:58.974Z,11.60
2023-01-02T05:15:25.941Z,11.70
2023-01-02T05:18:10.783Z,11.60
2023-01-02T05:20:37.446Z,11.60
2023-01-02T05:23:22.941Z,11.60
2023-01-02T05:25:49.753Z,11.60
2023-01-02T05:28:16.626Z,11.60
2023-01-02T05:30:43.516Z,11.60
2023-01-02T05:33:10.329Z,11.60
2023-01-02T05:35:37.170Z,11.60
2023-01-02T05:38:03.968Z,11.60
2023-01-02T05:40:30.892Z,11.60
2023-01-02T05:42:59.223Z,11.60
2023-01-02T05:45:26.983Z,11.60
2023-01-02T05:47:53.820Z,11.60
2023-01-02T05:50:20.645Z,11.60
2023-01-02T05:52:47.468Z,11.60
2023-01-02T05:55:14.285Z,11.70
2023-01-02T05:57:41.200Z,11.60
2023-01-02T06:00:08.618Z,11.60
2023-01-02T06:02:35.482Z,11.70
2023-01-02T06:05:02.430Z,11.70
2023-01-02T06:07:29.338Z,11.60
2023-01-02T06:09:56.175Z,11.60
2023-01-02T06:12:22.977Z,11.70
2023-01-02T06:14:49.799Z,11.70
2023-01-02T06:17:16.559Z,11.70
2023-01-02T06:19:46.151Z,11.70
2023-01-02T06:22:17.113Z,11.70
2023-01-02T06:24:43.891Z,11.70
2023-01-02T06:27:10.738Z,11.70
2023-01-02T06:29:37.502Z,11.70
2023-01-02T06:32:04.754Z,11.60
2023-01-02T06:34:31.625Z,11.70
2023-01-02T06:36:58.413Z,11.70
2023-01-02T06:39:25.276Z,11.70
2023-01-02T06:41:52.576Z,11.70
2023-01-02T06:44:19.387Z,11.70
2023-01-02T06:46:46.159Z,11.70
2023-01-02T06:49:13.034Z,11.70
2023-01-02T06:51:39.910Z,11.70
2023-01-02T06:54:14.614Z,11.70
2023-01-02T06:56:41.425Z,11.70
2023-01-02T06:59:09.462Z,11.70
2023-01-02T07:01:36.374Z,11.70
2023-01-02T07:04:03.189Z,11.80
2023-01-02T07:06:30.026Z,11.70
2023-01-02T07:08:56.904Z,11.80
2023-01-02T07:11:24.834Z,11.80
2023-01-02T07:13:54.355Z,11.80
2023-01-02T07:16:22.826Z,11.80
2023-01-02T07:18:51.675Z,11.80
2023-01-02T07:21:18.618Z,11.70
2023-01-02T07:23:45.673Z,11.80
2023-01-02T07:26:13.596Z,11.80
2023-01-02T07:28:40.621Z,11.70
2023-01-02T07:31:13.435Z,11.70
2023-01-02T07:33:40.246Z,11.70
2023-01-02T07:36:10.607Z,11.70
2023-01-02T07:38:39.164Z,11.70
2023-01-02T07:41:16.295Z,11.70
2023-01-02T07:43:44.648Z,11.70
2023-01-02T07:46:18.488Z,11.70
2023-01-02T07:48:46.113Z,11.60
2023-01-02T07:51:16.421Z,11.60
2023-01-02T07:53:45.333Z,11.50
2023-01-02T07:56:12.192Z,11.40
2023-01-02T07:58:39.074Z,11.20
2023-01-02T08:01:08.086Z,11.10
2023-01-02T08:03:35.436Z,11.00
2023-01-02T08:06:11.657Z,10.90
2023-01-02T08:08:38.986Z,10.80
2023-01-02T08:11:11.729Z,10.70
2023-01-02T08:13:38.717Z,10.70
2023-01-02T08:16:07.990Z,10.60
2023-01-02T08:18:35.082Z,10.50
2023-01-02T08:21:02.682Z,10.50
2023-01-02T08:23:30.137Z,10.40
2023-01-02T08:26:06.244Z,10.30
2023-01-02T08:28:34.085Z,10.30
2023-01-02T08:31:01.313Z,10.30
2023-01-02T08:33:28.407Z,10.20
2023-01-02T08:35:56.611Z,10.20
2023-01-02T08:38:24.822Z,10.20
2023-01-02T08:40:51.745Z,10.10
2023-01-02T08:43:18.617Z,10.00
2023-01-02T08:45:45.539Z,10.00
2023-01-02T08:48:19.796Z,10.00
2023-01-02T08:50:48.215Z,10.10
2023-01-02T08:53:15.042Z,10.00
2023-01-02T08:55:41.805Z,10.00
2023-01-02T08:58:08.575Z,9.90
2023-01-02T09:00:35.376Z,9.90
2023-01-02T09:03:02.461Z,9.80
2023-01-02T09:05:31.024Z,9.80
2023-01-02T09:07:58.963Z,9.80
2023-01-02T09:10:26.088Z,9.70
2023-01-02T09:12:53.057Z,9.60
2023-01-02T09:15:20.225Z,9.60
2023-01-02T09:17:47.030Z,9.60
2023-01-02T09:20:13.870Z,9.50
2023-01-02T09:22:40.860Z,9.50
2023-01-02T09:25:08.199Z,9.40
2023-01-02T09:27:35.047Z,9.40
2023-01-02T09:30:01.964Z,9.40
2023-01-02T09:32:29.102Z,9.40
2023-01-02T09:34:55.944Z,9.40
2023-01-02T09:37:22.733Z,9.40
2023-01-02T09:39:49.646Z,9.30
2023-01-02T09:42:17.729Z,9.30
2023-01-02T09:44:55.060Z,9.30
2023-01-02T09:47:24.843Z,9.20
2023-01-02T09:50:00.688Z,9.20
2023-01-02T09:52:35.645Z,9.20
2023-01-02T09:55:03.149Z,9.20
2023-01-02T09:57:30.111Z,9.20
2023-01-02T10:00:20.125Z,9.10
2023-01-02T10:02:56.083Z,9.10
2023-01-02T10:05:22.872Z,9.10
2023-01-02T10:08:08.073Z,9.10
2023-01-02T10:10:52.255Z,9.10
2023-01-02T10:16:31.884Z,9.20
2023-01-02T10:19:03.135Z,9.20
2023-01-02T10:21:37.391Z,9.30
2023-01-02T10:24:30.277Z,9.30
2023-01-02T10:26:58.142Z,9.30
2023-01-02T10:29:39.794Z,9.30
2023-01-02T10:32:14.492Z,9.30
2023-01-02T10:34:58.592Z,9.30
2023-01-02T10:37:26.962Z,9.30
2023-01-02T10:39:53.942Z,9.30
2023-01-02T10:42:21.665Z,9.30
2023-01-02T10:44:48.588Z,9.40
2023-01-02T10:47:31.055Z,9.40
2023-01-02T10:49:58.289Z,9.40
2023-01-02T10:52:48.792Z,9.40
2023-01-02T10:55:30.520Z,9.40
2023-01-02T10:58:04.363Z,9.40
2023-01-02T11:00:33.714Z,9.30
2023-01-02T11:03:16.519Z,9.30
2023-01-02T11:05:49.846Z,9.30
2023-01-02T11:08:21.676Z,9.20
2023-01-02T11:10:49.557Z,9.20
2023-01-02T11:13:18.650Z,9.30
2023-01-02T11:15:52.402Z,9.30
2023-01-02T11:18:55.198Z,9.30
2023-01-02T11:21:31.580Z,9.50
2023-01-02T11:24:15.643Z,9.60
2023-01-02T11:26:53.217Z,9.60
2023-01-02T11:29:32.838Z,9.70
2023-01-02T11:32:02.345Z,9.70
2023-01-02T11:34:40.620Z,9.70
2023-01-02T11:37:13.612Z,9.70
2023-01-02T11:39:41.409Z,9.70
2023-01-02T11:42:26.787Z,9.80
2023-01-02T11:45:03.253Z,9.80
2023-01-02T11:47:38.967Z,9.80
2023-01-02T11:50:06.774Z,9.80
2023-01-02T11:53:01.685Z,9.80
2023-01-02T11:55:34.039Z,9.80
2023-01-02T11:58:16.853Z,9.80
2023-01-02T12:00:47.197Z,9.80
2023-01-02T12:03:23.012Z,9.80
2023-01-02T12:05:56.663Z,9.80
2023-01-02T12:08:28.595Z,9.70
2023-01-02T12:11:19.992Z,9.70
2023-01-02T12:13:53.601Z,9.70
2023-01-02T12:16:34.163Z,9.60
2023-01-02T12:19:19.382Z,9.60
2023-01-02T12:21:55.168Z,9.70
2023-01-02T12:24:31.316Z,9.80
2023-01-02T12:27:02.920Z,9.70
2023-01-02T12:29:54.267Z,9.80
2023-01-02T12:32:49.422Z,9.70
2023-01-02T12:35:17.163Z,9.80
2023-01-02T12:37:57.706Z,9.80
2023-01-02T12:40:39.584Z,9.80
2023-01-02T12:43:33.570Z,9.80
2023-01-02T12:46:09.463Z,9.80
2023-01-02T12:48:48.145Z,9.80
2023-01-02T12:51:39.242Z,9.70
2023-01-02T12:54:40.148Z,9.70
2023-01-02T12:57:44.305Z,9.70
2023-01-02T13:00:32.342Z,9.60
2023-01-02T13:03:33.417Z,9.50
2023-01-02T13:06:05.367Z,9.50
2023-01-02T13:08:48.911Z,9.40
2023-01-02T13:11:25.326Z,9.40
2023-01-02T13:13:53.131Z,9.30
2023-01-02T13:16:25.223Z,9.30
2023-01-02T13:19:16.352Z,9.30
2023-01-02T13:22:00.519Z,9.30
2023-01-02T13:24:28.240Z,9.30
2023-01-02T13:26:58.205Z,9.20
2023-01-02T13:29:40.522Z,9.30
2023-01-02T13:32:10.448Z,9.30
2023-01-02T13:34:47.858Z,9.30
2023-01-02T13:37:19.981Z,9.30
2023-01-02T13:39:59.828Z,9.30
2023-01-02T13:42:54.398Z,9.30
2023-01-02T13:45:29.537Z,9.30
2023-01-02T13:48:18.585Z,9.30
2023-01-02T13:50:46.194Z,9.30
2023-01-02T13:53:12.946Z,9.30
2023-01-02T13:55:39.749Z,9.30
2023-01-02T13:58:17.539Z,9.40
2023-01-02T14:00:56.448Z,9.40
2023-01-02T14:03:26.317Z,9.40
2023-01-02T14:06:31.670Z,9.40
2023-01-02T14:09:04.816Z,9.40
2023-01-02T14:11:55.725Z,9.40
2023-01-02T14:14:43.310Z,9.40
2023-01-02T14:17:40.700Z,9.40
2023-01-02T14:20:26.831Z,9.40
2023-01-02T14:23:08.980Z,9.30
2023-01-02T14:25:47.061Z,9.40
2023-01-02T14:28:27.976Z,9.30
2023-01-02T14:30:55.997Z,9.30
2023-01-02T14:33:35.967Z,9.30
2023-01-02T14:36:12.129Z,9.30
2023-01-02T14:38:52.490Z,9.30
2023-01-02T14:42:08.967Z,9.30
2023-01-02T14:44:46.699Z,9.20
2023-01-02T14:47:17.663Z,9.20
2023-01-02T14:49:50.078Z,9.20
2023-01-02T14:52:25.772Z,9.20
2023-01-02T14:55:08.517Z,9.20
2023-01-02T14:57:39.144Z,9.20
2023-01-02T15:00:16.636Z,9.10
2023-01-02T15:02:47.862Z,9.10
2023-01-02T15:05:26.478Z,9.10
2023-01-02T15:07:55.894Z,9.10
2023-01-02T15:10:24.053Z,9.00
2023-01-02T15:13:05.092Z,9.00
2023-01-02T20:56:43.065Z,4.90
2023-01-02T20:59:19.168Z,4.80
2023-01-02T21:01:46.294Z,4.80
2023-01-02T21:04:13.702Z,4.80
2023-01-02T21:07:08.964Z,4.80
2023-01-02T21:09:39.343Z,4.80
2023-01-02T21:12:36.396Z,4.80
2023-01-02T21:15:06.325Z,4.80
2023-01-02T21:17:33.264Z,4.80
2023-01-02T21:20:00.451Z,4.70
2023-01-02T21:22:36.595Z,4.70
2023-01-02T21:25:03.973Z,4.70
2023-01-02T21:27:31.118Z,4.70
2023-01-02T21:29:58.624Z,4.70
2023-01-02T21:32:25.576Z,4.70
2023-01-02T21:34:52.505Z,4.80
2023-01-02T21:37:20.001Z,4.80
2023-01-02T21:39:48.460Z,4.80
2023-01-02T21:45:03.381Z,4.80
2023-01-02T21:47:30.241Z,4.70
2023-01-02T21:49:57.064Z,4.70
2023-01-02T21:52:23.968Z,4.60
2023-01-02T21:54:50.874Z,4.60
2023-01-02T21:57:20.180Z,4.60
2023-01-02T21:59:55.519Z,4.50
2023-01-02T22:02:31.651Z,4.50
2023-01-02T22:05:02.638Z,4.50
2023-01-02T22:07:32.087Z,4.50
2023-01-02T22:09:59.652Z,4.50
2023-01-02T22:12:27.495Z,4.40
2023-01-02T22:14:54.327Z,4.40
2023-01-02T22:17:27.827Z,4.50
2023-01-02T22:20:02.169Z,4.40
2023-01-02T22:22:29.328Z,4.40
2023-01-02T22:24:57.610Z,4.40
2023-01-02T22:27:24.444Z,4.40
2023-01-02T22:32:41.923Z,4.30
2023-01-02T22:35:09.344Z,4.30
2023-01-02T22:37:36.105Z,4.30
2023-01-02T22:40:02.997Z,4.30
2023-01-02T22:43:00.239Z,4.30
2023-01-02T22:45:31.718Z,4.30
2023-01-02T22:48:03.804Z,4.30
2023-01-02T22:50:40.512Z,4.30
2023-01-02T22:53:21.142Z,4.40
2023-01-02T22:55:48.623Z,4.50
2023-01-02T22:58:15.748Z,4.60
2023-01-02T23:00:42.784Z,4.70
2023-01-02T23:03:14.701Z,4.70
2023-01-02T23:05:41.861Z,4.80
2023-01-02T23:08:08.789Z,4.80
2023-01-02T23:10:35.686Z,4.90
2023-01-02T23:13:02.579Z,4.90
2023-01-02T23:15:30.026Z,4.90
2023-01-02T23:18:18.532Z,4.90
2023-01-02T23:20:45.517Z,4.90
2023-01-02T23:23:17.210Z,4.90
2023-01-02T23:25:44.185Z,4.80
2023-01-02T23:28:16.601Z,4.80
2023-01-02T23:30:57.976Z,4.80
2023-01-02T23:33:24.843Z,4.70
2023-01-02T23:35:52.635Z,4.70
2023-01-02T23:38:19.483Z,4.70
2023-01-02T23:40:52.710Z,4.60
2023-01-02T23:43:19.672Z,4.60
2023-01-02T23:45:55.904Z,4.60
2023-01-02T23:48:23.549Z,4.50
2023-01-02T23:50:58.359Z,4.50
2023-01-02T23:53:25.700Z,4.50
2023-01-02T23:55:52.974Z,4.50
2023-01-02T23:58:20.169Z,4.40
